Time;durP1;ratioP1;P1;durP2;ratioP2;P2;SDS_P1;SDS_P2;PMS_P1;PMS_P2;Temp;Humidity;BMP_temperature;BMP_pressure;BME280_temperature;BME280_humidity;BME280_pressure;Samples;Min_cycle;Max_cycle;Signal;HPM_P1;HPM_P2
2023/06/13 00:00:41;;;;;;;11.07;4.55;;;;;;;16.27;86.07;93479.34;5003793;28;20022;-78
2023/06/13 00:03:09;;;;;;;6.07;4.00;;;;;;;16.25;86.38;93473.53;5003577;28;20370;-79
2023/06/13 00:05:34;;;;;;;7.65;5.22;;;;;;;16.22;86.65;93466.97;5003682;28;20018;-79
2023/06/13 00:08:00;;;;;;;9.35;5.22;;;;;;;16.21;87.00;93467.31;5003671;28;20138;-77
2023/06/13 00:10:25;;;;;;;8.80;5.05;;;;;;;16.19;87.81;93462.28;5003578;28;20025;-77
2023/06/13 00:12:51;;;;;;;9.82;5.20;;;;;;;16.15;87.76;93461.47;5003339;28;20041;-77
2023/06/13 00:15:18;;;;;;;8.75;5.05;;;;;;;16.17;87.55;93463.78;5003560;28;20045;-77
2023/06/13 00:17:45;;;;;;;11.98;4.97;;;;;;;16.16;87.37;93456.84;5003566;28;20030;-77
2023/06/13 00:20:11;;;;;;;9.25;4.85;;;;;;;16.16;87.41;93452.28;5003451;28;20026;-77
2023/06/13 00:22:37;;;;;;;8.77;4.95;;;;;;;16.15;87.15;93455.31;5003390;28;20049;-77
2023/06/13 00:25:03;;;;;;;13.30;4.80;;;;;;;16.14;87.46;93448.38;5003502;28;20049;-77
2023/06/13 00:27:29;;;;;;;8.82;4.60;;;;;;;16.12;87.57;93445.25;5003448;28;20022;-78
2023/06/13 00:29:55;;;;;;;7.75;4.50;;;;;;;16.08;87.52;93449.78;5003480;28;20243;-78
2023/06/13 00:32:21;;;;;;;6.10;4.25;;;;;;;16.05;87.55;93452.06;5003291;28;20026;-78
2023/06/13 00:34:46;;;;;;;10.77;5.05;;;;;;;16.05;87.84;93451.28;5003326;28;20049;-78
2023/06/13 00:37:13;;;;;;;6.22;4.82;;;;;;;16.04;87.85;93457.81;5003219;28;20339;-78
2023/06/13 00:39:41;;;;;;;7.22;4.97;;;;;;;16.04;87.93;93452.44;5003238;28;20033;-78
2023/06/13 00:42:06;;;;;;;15.43;4.93;;;;;;;16.06;88.07;93450.19;5003452;28;20022;-78
2023/06/13 00:44:35;;;;;;;6.90;4.90;;;;;;;16.04;88.08;93450.53;5005139;28;20026;-79
2023/06/13 00:47:02;;;;;;;8.10;5.03;;;;;;;16.04;87.66;93452.44;4990159;28;20026;-79
2023/06/13 00:49:28;;;;;;;7.00;4.68;;;;;;;16.00;87.20;93448.91;5007227;28;20072;-79
2023/06/13 00:51:58;;;;;;;14.15;5.50;;;;;;;15.98;87.73;93456.56;5007046;28;20029;-79
2023/06/13 00:54:24;;;;;;;13.77;5.55;;;;;;;15.97;88.00;93452.31;4989879;28;20097;-78
2023/06/13 00:56:50;;;;;;;6.72;4.80;;;;;;;16.00;87.73;93459.66;4989699;28;20022;-77
2023/06/13 00:59:17;;;;;;;8.05;5.50;;;;;;;16.01;87.67;93445.84;5007146;28;20336;-79
2023/06/13 01:01:43;;;;;;;10.35;5.65;;;;;;;16.00;87.60;93441.63;4989492;28;20019;-78
2023/06/13 01:04:13;;;;;;;8.73;5.88;;;;;;;15.98;87.02;93443.88;5006925;28;20018;-78
2023/06/13 01:06:45;;;;;;;9.20;4.72;;;;;;;15.89;86.78;93443.31;5007013;28;20254;-78
2023/06/13 01:09:12;;;;;;;12.55;5.63;;;;;;;15.79;86.93;93441.22;5006815;28;20339;-78
2023/06/13 01:11:54;;;;;;;10.70;5.30;;;;;;;15.66;87.19;93437.88;5006621;28;20046;-77
2023/06/13 01:14:51;;;;;;;10.40;4.72;;;;;;;15.52;87.43;93445.66;5006733;28;20316;-78
2023/06/13 01:17:27;;;;;;;12.65;4.88;;;;;;;15.48;88.19;93439.47;5002568;28;20045;-77
2023/06/13 01:19:59;;;;;;;11.63;4.65;;;;;;;15.44;88.13;93450.88;5006777;28;20061;-78
2023/06/13 01:22:45;;;;;;;;;;;;;;;15.37;87.55;93441.94;5007066;28;20040;-77
2023/06/13 01:25:21;;;;;;;9.75;4.43;;;;;;;15.31;87.75;93441.44;5006657;28;19898;-77
2023/06/13 01:27:49;;;;;;;5.65;3.20;;;;;;;15.25;87.17;93440.16;5006513;28;20030;-78
2023/06/13 01:30:15;;;;;;;6.13;3.38;;;;;;;15.17;87.08;93443.81;5006489;28;20133;-77
2023/06/13 01:32:44;;;;;;;4.38;2.90;;;;;;;15.02;87.43;93434.66;5006517;28;20033;-77
2023/06/13 01:35:10;;;;;;;17.33;4.22;;;;;;;14.95;88.27;93440.66;5006599;28;20077;-79
2023/06/13 01:37:36;;;;;;;7.45;4.07;;;;;;;14.96;88.40;93446.81;5006306;28;20362;-78
2023/06/13 01:40:03;;;;;;;10.52;4.85;;;;;;;14.96;88.47;93446.81;4989069;28;20058;-78
2023/06/13 01:42:29;;;;;;;7.93;4.60;;;;;;;14.98;88.60;93442.66;5006358;28;20316;-78
2023/06/13 01:44:55;;;;;;;11.15;4.65;;;;;;;14.96;88.25;93442.25;5006287;28;20026;-78
2023/06/13 01:47:41;;;;;;;7.15;4.40;;;;;;;14.92;88.48;93441.38;5006049;28;20029;-79
2023/06/13 01:50:18;;;;;;;6.93;4.35;;;;;;;14.92;88.70;93446.75;5006187;28;20026;-79
2023/06/13 01:53:02;;;;;;;8.65;5.03;;;;;;;14.91;88.56;93450.56;5006197;28;20049;-80
2023/06/13 01:55:55;;;;;;;6.47;4.97;;;;;;;14.89;88.97;93446.66;5005586;28;20034;-79
2023/06/13 01:58:26;;;;;;;11.15;4.43;;;;;;;14.88;88.91;93445.09;5001357;28;20027;-80
2023/06/13 02:00:55;;;;;;;11.77;4.50;;;;;;;14.85;89.04;93441.22;5005988;28;20068;-80
2023/06/13 02:03:21;;;;;;;10.95;5.15;;;;;;;14.86;88.97;93442.78;5006045;28;20033;-79
2023/06/13 02:05:48;;;;;;;5.75;4.20;;;;;;;14.82;88.44;93436.56;5005760;28;20052;-79
2023/06/13 02:08:13;;;;;;;9.10;4.47;;;;;;;14.75;88.90;93447.13;4988445;28;20332;-80
2023/06/13 02:10:39;;;;;;;5.72;4.65;;;;;;;14.76;88.86;93454.81;5005741;28;20033;-80
2023/06/13 02:13:05;;;;;;;8.88;4.30;;;;;;;14.72;88.96;93442.47;5005514;28;20054;-80
2023/06/13 02:15:31;;;;;;;10.35;4.78;;;;;;;14.67;88.71;93437.34;5005553;28;20323;-79
2023/06/13 02:17:56;;;;;;;7.97;4.70;;;;;;;14.66;89.00;93446.53;5005698;28;20019;-80
2023/06/13 02:20:21;;;;;;;11.55;5.95;;;;;;;14.68;89.09;93442.38;5005636;28;20232;-80
2023/06/13 02:22:47;;;;;;;9.40;4.78;;;;;;;14.71;89.22;93440.91;5005647;28;20018;-80
2023/06/13 02:25:14;;;;;;;10.93;4.45;;;;;;;14.69;89.43;93443.16;5005383;28;20321;-80
2023/06/13 02:27:39;;;;;;;5.03;3.65;;;;;;;14.71;89.12;93441.66;5005338;28;20018;-79
2023/06/13 02:30:07;;;;;;;5.65;3.80;;;;;;;14.70;88.44;93442.81;5005305;28;20019;-80
2023/06/13 02:32:33;;;;;;;8.30;3.40;;;;;;;14.64;87.39;93436.94;4988058;28;20022;-80
2023/06/13 02:34:58;;;;;;;5.97;2.53;;;;;;;14.52;87.69;93438.91;5005620;28;20078;-80
2023/06/13 02:37:24;;;;;;;6.35;3.13;;;;;;;14.45;87.93;93450.25;5005211;28;20094;-80
2023/06/13 02:39:49;;;;;;;6.03;3.55;;;;;;;14.34;88.55;93455.34;5005364;28;20026;-79
2023/06/13 02:42:15;;;;;;;5.80;2.97;;;;;;;14.33;89.20;93453.81;5005280;28;20269;-79
2023/06/13 02:44:41;;;;;;;8.70;4.05;;;;;;;14.35;89.84;93451.56;5005119;28;20077;-78
2023/06/13 02:47:06;;;;;;;8.27;4.03;;;;;;;14.39;89.88;93452.41;5004859;28;20252;-77
2023/06/13 02:49:32;;;;;;;8.05;3.90;;;;;;;14.43;89.77;93453.28;5005111;28;20390;-77
2023/06/13 02:51:57;;;;;;;9.90;3.67;;;;;;;14.50;90.04;93452.66;5004782;28;20042;-78
2023/06/13 02:54:23;;;;;;;13.80;4.07;;;;;;;14.54;90.08;93456.19;5005095;28;20085;-77
2023/06/13 02:56:48;;;;;;;12.05;3.88;;;;;;;14.59;89.86;93460.53;5004985;28;20022;-78
2023/06/13 02:59:14;;;;;;;5.10;3.67;;;;;;;14.62;89.51;93454.50;5004820;28;20265;-78
2023/06/13 03:01:40;;;;;;;6.05;4.25;;;;;;;14.66;89.00;93463.41;4987479;28;20199;-78
2023/06/13 03:04:06;;;;;;;6.43;3.78;;;;;;;14.67;89.03;93466.88;5004685;28;20076;-78
2023/06/13 03:06:31;;;;;;;11.35;4.30;;;;;;;14.65;89.16;93461.84;5003831;28;20073;-79
2023/06/13 03:08:58;;;;;;;8.02;4.47;;;;;;;14.70;89.06;93471.53;5004588;28;20030;-79
2023/06/13 03:11:24;;;;;;;10.13;5.22;;;;;;;14.76;88.69;93470.16;5004575;28;20050;-78
2023/06/13 03:13:50;;;;;;;6.60;3.97;;;;;;;14.79;88.50;93464.84;5004513;28;20329;-78
2023/06/13 03:16:17;;;;;;;11.10;3.63;;;;;;;14.78;88.00;93462.53;5004507;28;20049;-78
2023/06/13 03:18:43;;;;;;;6.30;3.50;;;;;;;14.75;87.55;93468.59;5004557;28;20022;-78
2023/06/13 03:21:08;;;;;;;8.23;3.88;;;;;;;14.70;87.99;93468.88;5004189;28;20045;-77
2023/06/13 03:23:34;;;;;;;6.30;3.35;;;;;;;14.71;88.03;93468.50;5004613;28;20228;-77
2023/06/13 03:26:01;;;;;;;6.00;3.80;;;;;;;14.72;88.48;93474.66;5004616;28;20029;-77
2023/06/13 03:28:27;;;;;;;10.73;4.90;;;;;;;14.75;88.71;93469.34;5003431;28;20042;-78
2023/06/13 03:30:54;;;;;;;15.18;5.18;;;;;;;14.81;88.47;93467.19;5004306;28;20340;-78
2023/06/13 03:33:20;;;;;;;9.65;5.28;;;;;;;14.83;88.41;93465.69;4986940;28;20034;-79
2023/06/13 03:35:45;;;;;;;11.55;5.30;;;;;;;14.90;88.36;93470.47;5004119;28;20085;-78
2023/06/13 03:38:12;;;;;;;7.32;5.15;;;;;;;14.96;88.32;93463.72;5004128;28;20044;-78
2023/06/13 03:40:37;;;;;;;8.05;5.63;;;;;;;15.03;88.50;93463.84;5004068;28;20105;-79
2023/06/13 03:43:03;;;;;;;9.20;5.20;;;;;;;15.09;88.45;93466.28;5004104;28;20026;-78
2023/06/13 03:45:29;;;;;;;11.77;6.40;;;;;;;15.16;88.48;93467.22;5004185;28;20026;-79
2023/06/13 03:47:54;;;;;;;9.10;6.20;;;;;;;15.23;88.31;93461.22;5003969;28;20050;-80
2023/06/13 03:50:20;;;;;;;10.95;6.53;;;;;;;15.32;87.90;93471.75;5003851;28;20030;-79
2023/06/13 03:52:45;;;;;;;7.82;5.50;;;;;;;15.38;88.00;93473.78;5003146;28;20093;-79
2023/06/13 03:55:11;;;;;;;8.27;6.25;;;;;;;15.43;87.99;93486.94;5002643;28;20045;-79
2023/06/13 03:57:36;;;;;;;9.20;6.50;;;;;;;15.49;88.21;93473.22;5002877;28;20093;-79
2023/06/13 04:00:05;;;;;;;14.75;5.88;;;;;;;15.53;88.38;93480.25;5003733;28;20368;-78
2023/06/13 04:02:30;;;;;;;16.90;6.65;;;;;;;15.56;88.27;93482.22;5003509;28;20052;-80
2023/06/13 04:04:56;;;;;;;11.50;6.68;;;;;;;15.61;88.33;93481.13;5003711;28;20053;-80
2023/06/13 04:07:23;;;;;;;12.82;7.53;;;;;;;15.69;88.28;93485.53;5003593;28;20022;-78
2023/06/13 04:09:49;;;;;;;13.60;7.57;;;;;;;15.73;87.93;93477.56;5003490;28;20065;-79
2023/06/13 04:12:14;;;;;;;9.13;7.50;;;;;;;15.77;87.75;93484.59;5003554;28;20043;-79
2023/06/13 04:14:40;;;;;;;10.63;7.28;;;;;;;15.82;87.70;93478.91;5003610;28;20033;-77
2023/06/13 04:17:06;;;;;;;13.30;7.10;;;;;;;15.87;86.75;93496.66;5003407;28;20022;-77
2023/06/13 04:19:32;;;;;;;13.73;7.18;;;;;;;15.90;86.13;93487.91;5002561;28;20089;-79
2023/06/13 04:21:59;;;;;;;14.35;9.25;;;;;;;15.98;85.51;93488.81;5003655;28;20072;-79
2023/06/13 04:24:25;;;;;;;14.50;8.30;;;;;;;16.04;85.11;93501.59;5003436;28;20014;-79
2023/06/13 04:26:51;;;;;;;14.20;8.30;;;;;;;16.09;84.73;93495.16;5003155;28;20097;-79
2023/06/13 04:29:18;;;;;;;15.35;8.65;;;;;;;16.16;84.08;93494.50;5003360;28;20030;-78
2023/06/13 04:31:45;;;;;;;15.40;8.55;;;;;;;16.23;83.61;93495.41;5003060;28;20311;-77
2023/06/13 04:34:11;;;;;;;15.50;8.23;;;;;;;16.34;83.45;93497.50;5003123;28;20022;-77
2023/06/13 04:36:38;;;;;;;17.02;8.18;;;;;;;16.37;82.54;93497.56;5003286;28;20031;-78
2023/06/13 04:39:06;;;;;;;21.88;10.15;;;;;;;16.45;82.86;93507.31;5003333;28;20015;-78
2023/06/13 04:41:38;;;;;;;19.50;10.23;;;;;;;16.40;82.50;93499.53;5003213;28;20312;-78
2023/06/13 04:44:09;;;;;;;22.45;11.38;;;;;;;16.48;82.77;93499.66;5003099;28;20019;-77
2023/06/13 04:46:36;;;;;;;20.75;10.48;;;;;;;16.48;82.50;93503.13;5003230;28;20030;-78
2023/06/13 04:49:04;;;;;;;22.73;10.95;;;;;;;16.51;82.94;93498.97;5003157;28;20026;-78
2023/06/13 04:51:32;;;;;;;24.80;10.50;;;;;;;16.57;83.79;93514.44;5003217;28;20089;-77
2023/06/13 04:54:00;;;;;;;18.08;10.65;;;;;;;16.55;83.68;93505.94;5003161;28;20027;-78
2023/06/13 04:56:27;;;;;;;17.90;10.20;;;;;;;16.62;82.67;93502.59;5002996;28;20097;-77
2023/06/13 04:58:53;;;;;;;19.00;10.20;;;;;;;16.66;83.10;93514.19;5002877;28;20045;-78
2023/06/13 05:01:27;;;;;;;18.83;10.77;;;;;;;16.68;82.61;93508.47;5003086;28;20026;-78
2023/06/13 05:03:53;;;;;;;23.58;11.32;;;;;;;16.68;84.25;93511.16;5002983;28;20146;-77
2023/06/13 05:06:22;;;;;;;20.33;12.48;;;;;;;16.67;82.90;93521.13;5002943;28;20105;-78
2023/06/13 05:08:47;;;;;;;21.45;12.88;;;;;;;16.73;82.60;93516.22;5002850;28;20018;-78
2023/06/13 05:11:13;;;;;;;22.42;12.27;;;;;;;16.81;81.96;93517.91;5002787;28;20022;-77
2023/06/13 05:13:38;;;;;;;31.10;14.05;;;;;;;16.87;82.57;93521.84;5002788;28;20093;-77
2023/06/13 05:16:04;;;;;;;23.17;12.65;;;;;;;17.03;81.78;93519.78;4985567;28;20064;-79
2023/06/13 05:18:31;;;;;;;29.13;12.65;;;;;;;17.16;81.04;93527.69;5003009;28;20065;-79
2023/06/13 05:21:00;;;;;;;23.13;12.52;;;;;;;17.25;81.09;93512.03;5002833;28;20046;-81
2023/06/13 05:23:26;;;;;;;27.33;12.50;;;;;;;17.31;80.95;93517.91;4985279;28;20076;-80
2023/06/13 05:25:52;;;;;;;26.20;13.98;;;;;;;17.38;81.30;93517.97;5002895;28;20034;-80
2023/06/13 05:28:18;;;;;;;28.23;13.30;;;;;;;17.42;80.03;93514.22;5002705;28;20355;-80
2023/06/13 05:30:44;;;;;;;34.38;13.40;;;;;;;17.55;79.95;93519.38;5004584;28;20038;-79
2023/06/13 05:33:09;;;;;;;21.42;12.98;;;;;;;17.65;79.62;93524.13;5006311;28;20030;-80
2023/06/13 05:35:35;;;;;;;26.67;13.55;;;;;;;17.76;79.17;93513.47;5006138;28;20034;-81
2023/06/13 05:38:01;;;;;;;24.17;13.50;;;;;;;17.91;78.91;93517.13;5006496;28;20089;-80
2023/06/13 05:40:26;;;;;;;20.45;12.00;;;;;;;18.07;78.24;93515.00;5006383;28;20056;-77
2023/06/13 05:42:51;;;;;;;23.33;12.82;;;;;;;18.27;76.86;93510.22;5006333;28;20410;-77
2023/06/13 05:45:17;;;;;;;15.73;10.57;;;;;;;18.33;75.68;93508.75;5006086;28;20022;-78
2023/06/13 05:47:42;;;;;;;27.98;11.20;;;;;;;18.48;73.92;93517.78;5005985;28;20022;-77
2023/06/13 05:50:08;;;;;;;21.35;11.68;;;;;;;18.56;74.41;93511.28;5005968;28;20029;-77
2023/06/13 05:52:33;;;;;;;20.95;11.82;;;;;;;18.69;74.06;93511.78;5006273;28;20081;-80
2023/06/13 05:55:01;;;;;;;27.00;11.45;;;;;;;18.76;73.21;93521.84;5006225;28;20057;-80
2023/06/13 05:57:38;;;;;;;22.50;13.70;;;;;;;18.80;74.59;93528.84;5005946;28;20022;-80
2023/06/13 06:00:07;;;;;;;19.75;10.80;;;;;;;18.94;73.55;93524.75;5005926;28;20022;-80
2023/06/13 06:02:32;;;;;;;25.98;10.55;;;;;;;19.10;74.06;93529.88;5005408;28;20320;-81
2023/06/13 06:05:00;;;;;;;19.08;9.48;;;;;;;19.23;71.91;93521.09;5004606;28;20030;-86
2023/06/13 06:07:26;;;;;;;20.65;9.35;;;;;;;19.44;72.41;93512.34;5005576;28;20022;-83
2023/06/13 06:09:51;;;;;;;16.35;8.70;;;;;;;19.66;73.46;93523.25;4987702;28;20026;-80
2023/06/13 06:12:17;;;;;;;23.42;10.18;;;;;;;19.91;71.64;93514.53;4988103;28;20054;-80
2023/06/13 06:14:42;;;;;;;14.45;9.77;;;;;;;20.10;70.61;93518.84;4988213;28;20026;-80
2023/06/13 06:17:07;;;;;;;18.75;9.95;;;;;;;20.14;69.36;93515.00;5005341;28;20033;-81
2023/06/13 06:19:33;;;;;;;14.75;8.75;;;;;;;20.30;69.67;93519.31;5005739;28;20023;-82
2023/06/13 06:21:58;;;;;;;15.70;8.77;;;;;;;20.47;69.88;93520.50;4988271;28;20027;-82
2023/06/13 06:24:24;;;;;;;21.85;8.55;;;;;;;20.66;66.61;93522.09;5005328;28;20037;-82
2023/06/13 06:26:49;;;;;;;13.65;8.60;;;;;;;20.73;66.53;93516.69;5005241;28;20328;-83
2023/06/13 06:29:15;;;;;;;21.75;9.00;;;;;;;20.88;66.85;93523.66;5003160;28;20031;-82
2023/06/13 06:31:40;;;;;;;18.40;8.32;;;;;;;21.08;66.65;93523.28;5004512;28;20324;-83
2023/06/13 06:34:06;;;;;;;23.20;7.95;;;;;;;21.30;66.39;93519.41;5004941;28;20018;-84
2023/06/13 06:36:31;;;;;;;15.02;7.03;;;;;;;21.44;64.57;93513.97;5004489;28;20030;-83
2023/06/13 06:38:56;;;;;;;21.30;7.07;;;;;;;21.58;64.30;93515.91;5004197;28;20029;-83
2023/06/13 06:41:22;;;;;;;14.82;6.25;;;;;;;21.70;63.45;93520.13;5003552;28;20324;-83
2023/06/13 06:43:47;;;;;;;11.55;5.43;;;;;;;21.79;61.49;93520.47;5003607;28;20026;-82
2023/06/13 06:46:13;;;;;;;12.43;6.13;;;;;;;21.85;60.96;93515.44;5003406;28;20049;-82
2023/06/13 06:48:38;;;;;;;14.02;5.43;;;;;;;21.90;61.30;93514.25;4985916;28;20026;-83
2023/06/13 06:51:18;;;;;;;17.13;5.40;;;;;;;21.91;61.13;93519.28;5078454;28;20378;-82
2023/06/13 06:53:44;;;;;;;16.58;5.57;;;;;;;21.90;59.68;93517.75;5078312;28;20055;-81
2023/06/13 06:56:09;;;;;;;15.18;5.32;;;;;;;21.83;60.49;93515.03;5078525;28;20104;-82
2023/06/13 06:58:35;;;;;;;10.10;5.15;;;;;;;21.64;59.69;93516.28;5078548;28;20028;-82
2023/06/13 07:01:00;;;;;;;16.67;7.22;;;;;;;21.49;60.09;93514.75;5079767;28;20043;-82
2023/06/13 07:03:26;;;;;;;15.13;7.35;;;;;;;21.29;60.81;93522.50;5079668;28;20016;-81
2023/06/13 07:05:51;;;;;;;12.02;6.97;;;;;;;21.13;62.02;93520.19;5079651;28;20248;-82
2023/06/13 07:08:17;;;;;;;9.85;6.68;;;;;;;20.99;62.37;93524.44;5079849;28;20096;-82
2023/06/13 07:10:42;;;;;;;16.20;7.13;;;;;;;20.89;62.81;93519.81;5077152;28;20027;-82
2023/06/13 07:13:07;;;;;;;12.65;6.93;;;;;;;20.89;63.73;93514.38;5079398;28;20024;-82
2023/06/13 07:15:33;;;;;;;13.45;6.35;;;;;;;20.93;64.27;93517.09;5078139;28;20017;-82
2023/06/13 07:18:01;;;;;;;13.27;6.22;;;;;;;21.03;63.53;93511.69;5079636;28;20024;-83
2023/06/13 07:20:27;;;;;;;15.68;7.63;;;;;;;21.11;63.38;93511.69;5079568;28;20028;-82
2023/06/13 07:22:52;;;;;;;13.07;6.78;;;;;;;21.12;63.09;93507.81;5079472;28;20032;-82
2023/06/13 07:25:20;;;;;;;13.32;5.07;;;;;;;21.14;64.56;93508.19;5078177;28;20032;-82
2023/06/13 07:27:45;;;;;;;14.43;6.75;;;;;;;21.16;63.57;93516.69;5078037;28;20020;-82
2023/06/13 07:30:11;;;;;;;12.93;7.25;;;;;;;21.13;63.67;93502.00;5079227;28;20029;-82
2023/06/13 07:32:37;;;;;;;16.13;6.75;;;;;;;21.00;63.73;93509.75;5079353;28;20035;-82
2023/06/13 07:35:05;;;;;;;13.10;7.05;;;;;;;20.92;64.61;93510.13;5079251;28;20021;-82
2023/06/13 07:37:31;;;;;;;11.32;6.97;;;;;;;20.78;64.61;93508.97;5079567;28;20044;-82
2023/06/13 07:39:57;;;;;;;15.25;7.32;;;;;;;20.75;63.78;93506.25;5079071;28;20223;-83
2023/06/13 07:42:22;;;;;;;12.75;6.15;;;;;;;20.54;64.46;93517.81;5077947;28;20327;-82
2023/06/13 07:44:48;;;;;;;11.18;5.68;;;;;;;20.46;64.49;93506.19;5078771;28;20021;-82
2023/06/13 07:47:14;;;;;;;8.95;5.70;;;;;;;20.34;64.77;93512.75;5077721;28;20028;-82
2023/06/13 07:49:39;;;;;;;11.57;6.22;;;;;;;20.19;65.11;93520.06;5077475;28;20381;-81
2023/06/13 07:52:07;;;;;;;11.43;7.00;;;;;;;20.04;66.18;93511.09;5078907;28;20094;-82
2023/06/13 07:54:33;;;;;;;14.25;7.03;;;;;;;20.02;66.06;93507.22;5078641;28;20032;-82
2023/06/13 07:56:58;;;;;;;50.17;9.02;;;;;;;19.94;67.56;93508.34;5078912;28;20021;-82
2023/06/13 07:59:24;;;;;;;20.90;8.05;;;;;;;19.92;68.67;93513.38;5078563;28;20347;-82
2023/06/13 08:01:50;;;;;;;13.60;7.82;;;;;;;19.86;68.78;93512.97;5069912;28;20367;-82
2023/06/13 08:04:15;;;;;;;22.02;8.30;;;;;;;19.77;68.90;93509.84;5064095;28;20029;-80
2023/06/13 08:06:41;;;;;;;14.88;8.40;;;;;;;19.79;68.91;93512.94;5065462;28;20143;-80
2023/06/13 08:09:11;;;;;;;11.50;8.38;;;;;;;19.89;69.10;93511.44;5064135;28;20092;-80
2023/06/13 08:11:37;;;;;;;17.17;9.23;;;;;;;19.93;68.63;93514.94;5065225;28;20046;-81
2023/06/13 08:14:03;;;;;;;18.13;9.52;;;;;;;19.99;69.20;93508.00;5063995;28;20851;-81
2023/06/13 08:16:28;;;;;;;16.85;8.93;;;;;;;19.99;67.83;93503.38;5065246;28;20025;-80
2023/06/13 08:18:54;;;;;;;23.52;9.23;;;;;;;19.97;67.92;93502.97;5063886;28;20426;-80
2023/06/13 08:21:19;;;;;;;17.98;9.82;;;;;;;19.99;67.88;93503.38;5064950;28;20021;-81
2023/06/13 08:23:45;;;;;;;29.13;10.00;;;;;;;20.06;68.76;93505.31;5064948;28;20025;-81
2023/06/13 08:26:10;;;;;;;15.68;8.43;;;;;;;20.11;67.62;93502.25;5064832;28;20216;-80
2023/06/13 08:28:35;;;;;;;16.60;9.18;;;;;;;20.14;66.61;93509.59;5064862;28;20032;-81
2023/06/13 08:31:01;;;;;;;17.83;9.10;;;;;;;20.19;67.39;93501.13;5064799;28;20166;-82
2023/06/13 08:33:26;;;;;;;14.50;8.63;;;;;;;20.27;66.83;93501.13;5064811;28;20032;-82
2023/06/13 08:35:52;;;;;;;18.08;9.27;;;;;;;20.30;66.90;93495.72;5064966;28;20271;-84
2023/06/13 08:38:17;;;;;;;12.65;8.52;;;;;;;20.32;67.08;93500.75;5064732;28;20025;-83
2023/06/13 08:40:43;;;;;;;12.50;8.20;;;;;;;20.37;66.15;93500.38;5064648;28;20327;-82
2023/06/13 08:43:09;;;;;;;11.65;8.57;;;;;;;20.42;64.66;93503.47;5064741;28;20025;-82
2023/06/13 08:45:35;;;;;;;15.73;8.65;;;;;;;20.48;65.25;93506.59;5064466;28;20111;-81
2023/06/13 08:48:01;;;;;;;12.55;8.32;;;;;;;20.55;64.23;93503.09;5064635;28;20025;-82
2023/06/13 08:50:26;;;;;;;11.52;9.27;;;;;;;20.57;63.70;93504.25;5063146;28;20079;-82
2023/06/13 08:52:54;;;;;;;20.25;9.55;;;;;;;20.69;64.63;93499.69;5064539;28;20104;-81
2023/06/13 08:55:23;;;;;;;14.25;10.23;;;;;;;20.86;64.49;93498.91;5064180;28;20032;-82
2023/06/13 08:57:53;;;;;;;16.45;9.95;;;;;;;20.97;62.55;93499.69;5063064;28;20033;-82
2023/06/13 09:00:21;;;;;;;17.27;10.15;;;;;;;21.10;62.48;93507.41;5063248;28;20021;-82
2023/06/13 09:02:46;;;;;;;21.48;9.98;;;;;;;21.15;61.10;93507.03;5064194;28;20029;-81
2023/06/13 09:05:17;;;;;;;17.98;9.75;;;;;;;21.21;61.82;93506.25;5064325;28;20029;-81
2023/06/13 09:07:46;;;;;;;15.80;9.10;;;;;;;21.22;61.74;93502.38;5064210;28;20021;-81
2023/06/13 09:10:12;;;;;;;23.60;11.77;;;;;;;21.22;61.03;93507.78;5063979;28;20020;-81
2023/06/13 09:12:42;;;;;;;19.92;9.25;;;;;;;21.23;60.09;93500.44;5063552;28;20020;-81
2023/06/13 09:15:09;;;;;;;26.70;10.60;;;;;;;21.24;60.93;93513.59;5064051;28;20048;-81
2023/06/13 09:17:35;;;;;;;17.13;7.75;;;;;;;21.25;64.08;93508.97;5064184;28;20020;-81
2023/06/13 09:20:00;;;;;;;14.63;5.50;;;;;;;21.24;65.04;93510.88;5063096;28;20247;-81
2023/06/13 09:22:35;;;;;;;13.82;6.95;;;;;;;21.27;65.42;93509.34;5063885;28;20021;-82
2023/06/13 09:25:01;;;;;;;10.50;5.70;;;;;;;21.30;64.90;93515.91;5063992;28;20025;-82
2023/06/13 09:27:34;;;;;;;12.85;5.53;;;;;;;21.19;64.74;93511.28;5064088;28;20079;-83
2023/06/13 09:30:02;;;;;;;11.38;6.00;;;;;;;21.17;64.57;93516.31;5063861;28;20029;-83
2023/06/13 09:32:28;;;;;;;12.75;5.75;;;;;;;21.07;65.78;93517.09;5064055;28;20017;-84
2023/06/13 09:34:54;;;;;;;11.57;5.63;;;;;;;21.06;65.66;93509.34;5064391;28;20024;-85
2023/06/13 09:37:20;;;;;;;18.23;8.55;;;;;;;21.09;65.01;93509.34;5063875;28;20031;-86
2023/06/13 09:39:47;;;;;;;16.38;7.88;;;;;;;21.16;65.21;93516.69;5063475;28;20013;-83
2023/06/13 09:42:12;;;;;;;12.52;5.22;;;;;;;21.18;65.04;93506.25;5062533;28;20099;-83
2023/06/13 09:44:38;;;;;;;6.07;4.30;;;;;;;21.22;65.09;93507.78;5063668;28;20040;-82
2023/06/13 09:47:04;;;;;;;9.18;4.40;;;;;;;21.33;64.64;93505.09;5063592;28;20055;-84
2023/06/13 09:49:32;;;;;;;13.75;4.53;;;;;;;21.42;64.22;93512.81;5095828;28;20040;-86
2023/06/13 09:52:01;;;;;;;7.40;4.63;;;;;;;21.46;63.44;93499.28;5063590;28;20025;-84
2023/06/13 09:54:31;;;;;;;11.50;6.60;;;;;;;21.57;62.56;93497.28;5063412;28;20028;-85
2023/06/13 09:56:57;;;;;;;16.00;8.20;;;;;;;21.67;62.75;93501.16;5062086;28;20032;-85
2023/06/13 09:59:26;;;;;;;11.40;7.85;;;;;;;21.73;62.38;93500.34;5063740;28;20029;-85
2023/06/13 10:01:51;;;;;;;12.63;8.13;;;;;;;21.92;62.13;93509.19;5062114;28;20021;-85
2023/06/13 10:04:18;;;;;;;20.45;7.13;;;;;;;22.05;61.18;93499.47;5061979;28;20222;-84
2023/06/13 10:06:43;;;;;;;23.10;7.38;;;;;;;22.15;60.61;93493.22;5063071;28;20024;-83
2023/06/13 10:09:12;;;;;;;19.40;8.15;;;;;;;22.24;61.37;93498.22;5063096;28;20326;-83
2023/06/13 10:11:43;;;;;;;11.85;5.88;;;;;;;22.29;60.13;93497.81;5063165;28;20027;-82
2023/06/13 10:14:11;;;;;;;8.63;5.25;;;;;;;22.14;57.16;93491.66;5062936;28;20051;-82
2023/06/13 10:16:45;;;;;;;10.02;5.63;;;;;;;21.95;58.98;93501.06;5064133;28;20056;-83
2023/06/13 10:19:21;;;;;;;11.18;5.90;;;;;;;21.88;59.75;93501.09;5063141;28;20196;-82
2023/06/13 10:21:48;;;;;;;19.52;5.00;;;;;;;21.75;61.21;93500.72;5070998;28;20265;-82
2023/06/13 10:24:16;;;;;;;10.43;5.22;;;;;;;21.75;62.44;93502.69;5062711;28;20035;-82
2023/06/13 10:26:45;;;;;;;11.88;4.75;;;;;;;21.76;62.34;93496.09;5062850;28;20024;-82
2023/06/13 10:29:11;;;;;;;6.80;4.53;;;;;;;;;;5062616;28;20257;-82
2023/06/13 10:31:39;;;;;;;17.30;5.20;;;;;;;21.85;62.21;93501.88;5062738;28;20033;-82
2023/06/13 10:34:23;;;;;;;8.30;5.57;;;;;;;21.84;61.61;93498.38;5062567;28;20052;-82
2023/06/13 10:37:13;;;;;;;15.32;5.20;;;;;;;21.81;61.88;93493.72;5061436;28;20112;-81
2023/06/13 10:40:20;;;;;;;15.98;5.25;;;;;;;21.82;61.47;93492.56;5062155;28;20219;-81
2023/06/13 10:42:51;;;;;;;20.15;7.40;;;;;;;21.90;60.17;93487.91;5039958;28;20290;-81
2023/06/13 10:45:29;;;;;;;20.20;7.28;;;;;;;21.89;59.75;93493.72;5040500;28;20056;-81
2023/06/13 10:47:58;;;;;;;15.00;6.80;;;;;;;21.97;60.68;93492.53;5054155;28;20037;-82
2023/06/13 10:50:26;;;;;;;12.55;7.20;;;;;;;22.09;61.45;93480.47;5062255;28;20127;-81
2023/06/13 10:52:57;;;;;;;18.13;7.15;;;;;;;22.16;62.32;93489.31;5062633;28;20068;-81
2023/06/13 10:55:25;;;;;;;15.75;7.47;;;;;;;22.23;62.60;93480.38;5062757;28;20047;-81
2023/06/13 10:57:53;;;;;;;11.00;7.32;;;;;;;22.39;60.01;93469.84;5062479;28;20031;-83
2023/06/13 11:00:30;;;;;;;14.63;7.32;;;;;;;22.50;60.49;93464.34;5061204;28;20092;-81
2023/06/13 11:03:12;;;;;;;12.23;7.25;;;;;;;22.70;60.22;93469.25;5062607;28;20031;-82
2023/06/13 11:05:52;;;;;;;13.07;6.97;;;;;;;22.95;57.48;93466.34;5062576;28;20207;-81
2023/06/13 11:08:22;;;;;;;16.98;6.13;;;;;;;23.13;56.30;93466.22;5062505;28;20075;-81
2023/06/13 11:10:52;;;;;;;12.57;5.97;;;;;;;23.18;56.78;93471.19;5062289;28;20035;-81
2023/06/13 11:13:26;;;;;;;11.60;5.63;;;;;;;23.39;56.29;93473.72;5062367;28;20028;-81
2023/06/13 11:15:57;;;;;;;13.90;5.85;;;;;;;23.63;55.33;93471.16;5062456;28;20087;-81
2023/06/13 11:18:23;;;;;;;12.98;5.75;;;;;;;23.56;55.31;93471.97;5061264;28;20155;-82
2023/06/13 11:20:53;;;;;;;11.10;5.20;;;;;;;23.53;55.91;93466.56;5060752;28;20020;-82
2023/06/13 11:23:22;;;;;;;12.80;4.57;;;;;;;23.66;55.60;93462.16;5062246;28;20034;-82
2023/06/13 11:25:48;;;;;;;11.63;5.45;;;;;;;23.70;53.79;93464.84;5062016;28;20315;-83
2023/06/13 11:28:14;;;;;;;20.58;5.53;;;;;;;23.71;54.41;93463.66;5061941;28;20337;-80